Time;durP1;ratioP1;P1;durP2;ratioP2;P2;SDS_P1;SDS_P2;PMS_P1;PMS_P2;Temp;Humidity;BMP_temperature;BMP_pressure;BME280_temperature;BME280_humidity;BME280_pressure;Samples;Min_cycle;Max_cycle;Signal;HPM_P1;HPM_P2
2022/06/29 00:05:02;;;;;;;12.68;8.70;;;;;;;15.21;85.39;101579.59;4970127;28;20027;-95
2022/06/29 00:08:01;;;;;;;11.88;9.02;;;;;;;15.34;85.80;101612.25;4955286;28;20031;-95
2022/06/29 00:11:01;;;;;;;13.27;9.60;;;;;;;15.33;85.27;101608.78;4944716;28;20027;-95
2022/06/29 00:14:03;;;;;;;11.73;9.40;;;;;;;15.09;86.22;101582.56;4958615;28;20022;-94
2022/06/29 00:17:05;;;;;;;13.70;9.13;;;;;;;15.14;86.81;101591.97;4980276;28;20134;-96
2022/06/29 00:20:02;;;;;;;14.30;9.65;;;;;;;15.16;87.54;101603.22;4911526;29;20041;-94
2022/06/29 00:26:03;;;;;;;10.50;9.38;;;;;;;15.01;86.34;101593.25;4923084;29;20519;-94
2022/06/29 00:29:01;;;;;;;12.52;10.18;;;;;;;14.94;87.31;101584.72;4930813;29;20067;-94
2022/06/29 00:32:01;;;;;;;11.57;10.07;;;;;;;14.95;87.78;101581.22;4860164;29;20068;-91
2022/06/29 00:35:01;;;;;;;13.25;10.73;;;;;;;14.88;87.19;101563.16;4920712;29;20665;-95
2022/06/29 00:38:12;;;;;;;13.40;10.88;;;;;;;14.83;86.95;101562.44;4899926;29;20079;-95
2022/06/29 00:41:02;;;;;;;16.85;11.55;;;;;;;14.79;86.54;101564.31;4893758;29;20040;-95
2022/06/29 00:44:04;;;;;;;15.95;12.00;;;;;;;14.83;87.53;101568.53;4926581;29;20477;-94
2022/06/29 00:47:04;;;;;;;13.77;11.75;;;;;;;14.81;86.46;101575.53;4938167;29;20057;-95
2022/06/29 00:50:03;;;;;;;15.57;12.13;;;;;;;14.86;87.70;101589.34;4956999;28;20037;-91
2022/06/29 00:56:04;;;;;;;17.02;12.73;;;;;;;14.63;87.56;101558.69;4952651;29;20086;-90
2022/06/29 00:58:55;;;;;;;17.17;12.70;;;;;;;14.61;87.54;101557.84;4946873;28;20141;-91
2022/06/29 01:02:03;;;;;;;17.35;13.10;;;;;;;14.62;88.07;101561.31;4925657;29;20039;-91
2022/06/29 01:08:01;;;;;;;15.52;12.68;;;;;;;14.54;88.05;101547.63;4888911;29;20108;-91
2022/06/29 01:14:03;;;;;;;16.98;13.63;;;;;;;14.52;89.02;101544.25;4911081;29;20114;-91
2022/06/29 01:16:47;;;;;;;;;;;;;;;;;;;;;
2022/06/29 01:26:02;;;;;;;15.77;13.90;;;;;;;14.51;88.88;101571.22;4893028;29;20079;-94
2022/06/29 01:28:57;;;;;;;16.75;13.50;;;;;;;14.31;88.97;101540.44;4908877;29;20039;-94
2022/06/29 01:35:02;;;;;;;17.02;15.13;;;;;;;14.27;88.46;101537.94;4909406;29;20036;-94
2022/06/29 01:38:01;;;;;;;18.88;14.88;;;;;;;14.37;88.63;101557.69;4911283;29;20471;-94
2022/06/29 01:41:01;;;;;;;18.60;14.90;;;;;;;14.34;88.30;101557.75;4930680;29;20114;-96
2022/06/29 01:44:02;;;;;;;19.30;15.27;;;;;;;14.33;89.64;101559.50;4931143;28;20682;-94
2022/06/29 01:47:03;;;;;;;19.45;14.50;;;;;;;14.29;89.28;101557.03;4933052;29;20027;-95
2022/06/29 01:50:03;;;;;;;17.70;14.77;;;;;;;14.27;88.89;101553.59;4921937;29;20182;-94
2022/06/29 01:56:03;;;;;;;20.80;15.55;;;;;;;14.21;89.20;101555.50;4924176;29;20039;-93
2022/06/29 01:59:21;;;;;;;;;;;;;;;;;;;;;
2022/06/29 02:02:05;;;;;;;18.80;15.60;;;;;;;14.14;90.45;101540.03;4953089;28;20355;-96
2022/06/29 02:04:50;;;;;;;;;;;;;;;;;;;;;
2022/06/29 02:10:39;;;;;;;20.38;15.45;;;;;;;14.13;90.45;101533.97;4951206;28;19922;-95
2022/06/29 02:14:01;;;;;;;18.70;15.98;;;;;;;14.01;89.62;101510.84;4936246;29;20134;-96
2022/06/29 02:16:41;;;;;;;22.70;16.15;;;;;;;13.90;90.30;101507.69;4929601;29;20122;-96
2022/06/29 02:19:46;;;;;;;;;;;;;;;;;;;;;
2022/06/29 02:23:04;;;;;;;19.48;16.25;;;;;;;13.94;90.16;101518.88;4952622;28;20039;-95
2022/06/29 02:29:01;;;;;;;20.17;16.42;;;;;;;13.96;90.97;101515.34;4894069;29;20111;-95
2022/06/29 02:35:03;;;;;;;20.48;16.08;;;;;;;13.90;91.02;101505.09;4955510;29;20517;-96
2022/06/29 02:38:14;;;;;;;20.92;16.90;;;;;;;14.08;91.28;101529.78;4957082;28;20055;-95
2022/06/29 02:41:02;;;;;;;20.52;16.30;;;;;;;13.98;92.01;101512.69;4951756;28;20045;-96
2022/06/29 02:47:30;;;;;;;22.20;17.10;;;;;;;14.11;92.45;101514.06;4945257;28;20047;-96
2022/06/29 02:50:01;;;;;;;18.75;16.10;;;;;;;14.10;91.30;101515.81;4973036;28;20042;-95
2022/06/29 02:53:02;;;;;;;20.67;16.88;;;;;;;14.14;90.42;101509.63;4967052;28;20070;-96
2022/06/29 02:55:54;;;;;;;19.33;16.58;;;;;;;14.15;91.85;101508.72;4933310;28;20034;-96
2022/06/29 02:58:49;;;;;;;20.05;16.60;;;;;;;14.19;90.44;101512.94;4969621;28;20406;-94
2022/06/29 03:04:51;;;;;;;18.70;16.05;;;;;;;14.19;90.71;101509.50;4974991;28;20035;-95
2022/06/29 03:07:45;;;;;;;20.80;16.92;;;;;;;14.11;91.16;101501.03;4953223;28;20051;-94
2022/06/29 03:10:43;;;;;;;20.15;16.48;;;;;;;14.07;89.89;101491.56;4942842;28;20098;-95
2022/06/29 03:14:01;;;;;;;25.23;16.38;;;;;;;14.16;89.38;101513.03;4915403;29;20036;-93
2022/06/29 03:16:57;;;;;;;19.35;16.15;;;;;;;14.04;89.87;101502.09;4929707;29;20040;-95
2022/06/29 03:20:03;;;;;;;23.00;16.05;;;;;;;14.09;90.48;101511.50;4915892;29;20484;-95
2022/06/29 03:26:01;;;;;;;18.65;16.55;;;;;;;13.88;90.28;101469.53;4955697;28;20035;-94
2022/06/29 03:32:39;;;;;;;18.92;15.75;;;;;;;13.99;89.83;101489.19;4976007;28;20610;-95
2022/06/29 03:35:05;;;;;;;20.10;17.05;;;;;;;13.84;90.72;101482.66;4990282;28;20034;-95
2022/06/29 03:38:00;;;;;;;20.67;17.42;;;;;;;13.95;90.05;101494.53;4977634;28;20027;-94
2022/06/29 03:44:05;;;;;;;22.77;16.52;;;;;;;13.90;90.24;101486.84;4878456;29;20432;-95
2022/06/29 03:47:18;;;;;;;19.48;16.67;;;;;;;13.70;89.90;101455.25;4878318;29;20040;-94
2022/06/29 03:50:01;;;;;;;21.02;17.50;;;;;;;13.64;90.40;101447.59;4846830;29;20083;-95
2022/06/29 03:53:02;;;;;;;21.55;17.75;;;;;;;13.62;90.17;101446.78;4861137;29;20071;-95
2022/06/29 03:56:04;;;;;;;19.38;17.27;;;;;;;13.65;90.35;101444.94;4839123;29;20046;-95
2022/06/29 03:59:05;;;;;;;21.05;17.85;;;;;;;13.76;91.06;101463.75;4836793;29;20198;-95
2022/06/29 04:02:04;;;;;;;22.85;18.00;;;;;;;13.82;91.05;101470.56;4788877;29;20038;-94
2022/06/29 04:08:05;;;;;;;22.88;18.38;;;;;;;13.59;91.94;101433.81;4900708;29;20032;-93
2022/06/29 04:11:01;;;;;;;23.33;18.20;;;;;;;13.57;91.29;101440.84;4935164;29;20029;-94
2022/06/29 04:13:46;;;;;;;;;;;;;;;;;;;;;
2022/06/29 04:20:01;;;;;;;21.48;18.00;;;;;;;13.67;91.87;101447.50;4925345;29;20040;-93
2022/06/29 04:23:02;;;;;;;21.58;18.17;;;;;;;13.65;93.35;101444.06;4966607;29;20033;-94
2022/06/29 04:26:10;;;;;;;20.95;17.80;;;;;;;13.70;92.91;101450.03;4948866;29;20183;-93
2022/06/29 04:29:05;;;;;;;21.95;19.35;;;;;;;13.67;93.14;101448.38;4957076;29;20050;-90
2022/06/29 04:31:49;;;;;;;;;;;;;;;13.92;91.38;101479.81;4910944;29;20080;-90
2022/06/29 04:34:47;;;;;;;24.13;18.00;;;;;;;13.82;94.00;101454.91;4951328;28;19915;-90
2022/06/29 04:41:23;;;;;;;;;;;;;;;;;;;;;
2022/06/29 04:44:01;;;;;;;23.52;18.23;;;;;;;13.91;93.81;101443.38;4956195;28;20037;-90
2022/06/29 04:46:50;;;;;;;23.20;19.15;;;;;;;14.04;93.86;101463.84;4954369;28;20037;-90
2022/06/29 04:49:51;;;;;;;23.50;19.13;;;;;;;14.08;93.81;101462.88;4953695;28;20125;-90
2022/06/29 04:56:01;;;;;;;23.95;18.35;;;;;;;14.05;93.42;101455.16;4951650;28;20534;-90
2022/06/29 04:58:57;;;;;;;;;;;;;;;;;;;;;
2022/06/29 05:05:02;;;;;;;26.23;21.20;;;;;;;14.13;95.16;101432.28;4915443;29;20043;-94
2022/06/29 05:08:01;;;;;;;23.02;19.60;;;;;;;14.37;93.37;101461.19;4932388;29;20040;-93
2022/06/29 05:10:45;;;;;;;26.30;22.50;;;;;;;14.30;94.80;101437.03;4933158;28;20050;-92
2022/06/29 05:14:05;;;;;;;27.67;22.30;;;;;;;14.50;94.23;101452.13;4928488;29;20059;-92
2022/06/29 05:16:39;;;;;;;29.50;23.23;;;;;;;14.44;95.42;101434.91;4921138;29;20045;-92
2022/06/29 05:19:04;;;;;;;32.60;24.58;;;;;;;14.57;95.16;101445.81;4923627;29;20199;-92
2022/06/29 05:22:02;;;;;;;28.48;23.90;;;;;;;14.57;94.38;101428.41;4898961;29;20056;-93
2022/06/29 05:25:01;;;;;;;29.60;23.98;;;;;;;14.60;94.49;101428.28;4876267;29;20045;-94
2022/06/29 05:28:11;;;;;;;28.65;22.60;;;;;;;14.78;94.99;101455.59;4885064;29;20029;-93
2022/06/29 05:31:02;;;;;;;27.13;22.48;;;;;;;14.84;94.03;101454.53;4870599;29;20124;-95
2022/06/29 05:34:01;;;;;;;27.70;22.45;;;;;;;14.78;93.79;101437.31;4862098;29;20131;-95
2022/06/29 05:36:55;;;;;;;33.38;22.10;;;;;;;14.95;94.52;101445.47;4965935;28;20042;-95
2022/06/29 05:43:05;;;;;;;27.40;23.00;;;;;;;14.98;95.71;101429.72;4933302;28;20573;-95
2022/06/29 05:45:36;;;;;;;30.13;22.73;;;;;;;14.94;95.95;101401.16;4936686;28;20032;-95
2022/06/29 05:48:01;;;;;;;30.50;22.60;;;;;;;15.03;95.43;101409.50;4929974;28;20027;-95
2022/06/29 05:54:04;;;;;;;25.90;20.23;;;;;;;15.21;93.27;101417.66;4897103;29;20968;-94
2022/06/29 05:56:29;;;;;;;27.45;19.98;;;;;;;15.28;93.19;101406.97;4926743;28;20035;-94
2022/06/29 05:59:02;;;;;;;29.40;21.40;;;;;;;15.35;95.00;101402.38;4932024;28;20031;-95
2022/06/29 06:02:03;;;;;;;29.83;20.02;;;;;;;15.62;93.65;101440.63;4946384;28;20034;-94
2022/06/29 06:05:03;;;;;;;27.08;20.23;;;;;;;15.65;92.87;101423.97;4945543;28;20042;-95
2022/06/29 06:07:45;;;;;;;24.40;19.38;;;;;;;15.73;95.63;101421.94;4950393;28;20027;-95
2022/06/29 06:10:48;;;;;;;28.33;20.08;;;;;;;15.79;93.28;101427.81;4927145;28;20043;-95
2022/06/29 06:17:01;;;;;;;23.95;19.73;;;;;;;16.16;92.43;101444.78;4907219;28;20511;-94
2022/06/29 06:19:30;;;;;;;29.27;21.58;;;;;;;16.27;94.45;101437.38;4936950;28;20023;-93
2022/06/29 06:22:01;;;;;;;26.98;19.88;;;;;;;16.19;93.00;101414.13;4935027;29;20023;-94
2022/06/29 06:25:02;;;;;;;27.30;21.25;;;;;;;16.37;93.09;101420.44;4950488;28;20518;-93
2022/06/29 06:27:27;;;;;;;30.90;22.08;;;;;;;16.40;89.96;101406.38;4959334;28;20030;-94
2022/06/29 06:30:29;;;;;;;;;;;;;;;;;;;;;
2022/06/29 06:33:02;;;;;;;25.33;21.00;;;;;;;16.71;87.35;101416.53;4962919;28;20022;-90
2022/06/29 06:36:02;;;;;;;;;;;;;;;;;;;;;
2022/06/29 06:39:02;;;;;;;26.80;21.38;;;;;;;16.83;92.28;101397.69;4964991;28;20023;-90
2022/06/29 06:42:04;;;;;;;27.90;21.52;;;;;;;16.96;90.81;101412.00;4962932;28;20100;-90
2022/06/29 06:45:05;;;;;;;28.35;21.60;;;;;;;17.09;91.70;101412.34;4929552;28;20059;-90
2022/06/29 06:48:01;;;;;;;27.70;21.08;;;;;;;17.35;91.45;101438.28;4924681;29;20090;-91
2022/06/29 06:50:59;;;;;;;28.83;20.55;;;;;;;17.50;87.63;101432.41;4966564;28;20039;-91
2022/06/29 06:57:02;;;;;;;25.80;20.02;;;;;;;17.87;87.66;101436.94;4913417;28;20075;-91
2022/06/29 07:00:02;;;;;;;26.60;20.10;;;;;;;18.10;84.64;101436.75;4958989;28;20027;-92
2022/06/29 07:03:02;;;;;;;26.15;19.00;;;;;;;18.09;87.95;101403.53;4958678;28;20375;-91
2022/06/29 07:05:52;;;;;;;25.08;18.55;;;;;;;18.35;88.20;101438.25;4971311;28;20031;-91
2022/06/29 07:08:44;;;;;;;24.85;19.63;;;;;;;18.25;88.10;101406.31;4969462;28;20042;-91
2022/06/29 07:12:02;;;;;;;28.52;19.65;;;;;;;18.34;87.61;101410.31;4931714;28;20046;-91
2022/06/29 07:15:01;;;;;;;25.38;19.13;;;;;;;18.68;88.36;101423.56;4895977;29;20522;-90
2022/06/29 07:18:00;;;;;;;25.08;17.85;;;;;;;18.96;85.00;101412.56;4967443;28;20038;-91
2022/06/29 07:21:02;;;;;;;24.30;17.45;;;;;;;19.33;85.00;101406.31;4953047;29;20027;-91
2022/06/29 07:24:01;;;;;;;21.40;16.77;;;;;;;19.76;81.68;101399.69;4970728;28;20078;-90
2022/06/29 07:27:02;;;;;;;20.80;15.40;;;;;;;20.34;80.43;101399.19;4959545;28;20045;-91
2022/06/29 07:30:03;;;;;;;18.08;15.23;;;;;;;20.98;78.28;101416.63;4964360;28;20030;-91
2022/06/29 07:36:02;;;;;;;18.95;13.35;;;;;;;21.73;74.40;101418.34;4970213;28;20058;-90
2022/06/29 07:42:02;;;;;;;19.48;15.07;;;;;;;22.33;71.45;101406.63;4949247;28;20034;-92
2022/06/29 07:45:02;;;;;;;21.00;14.68;;;;;;;22.59;70.24;101398.81;4987475;28;20043;-93
2022/06/29 07:47:59;;;;;;;;;;;;;;;;;;;;;
2022/06/29 07:51:03;;;;;;;16.80;13.18;;;;;;;22.62;72.00;101399.47;4954231;28;20023;-94
2022/06/29 07:54:01;;;;;;;16.58;13.23;;;;;;;22.54;72.48;101385.91;4913182;29;20028;-96
2022/06/29 07:56:32;;;;;;;16.55;11.48;;;;;;;22.64;71.46;101423.16;4917750;29;20102;-94
2022/06/29 07:59:03;;;;;;;15.15;12.25;;;;;;;22.89;70.73;101423.28;4943997;28;20051;-94
2022/06/29 08:01:28;;;;;;;14.65;11.85;;;;;;;23.03;67.91;101419.72;4938838;29;20050;-94
2022/06/29 08:04:01;;;;;;;14.95;11.48;;;;;;;23.24;69.18;101411.19;4941568;28;20492;-94
2022/06/29 08:07:01;;;;;;;18.90;11.48;;;;;;;23.63;68.22;101406.81;4953266;29;20034;-93
2022/06/29 08:10:04;;;;;;;15.50;12.10;;;;;;;24.43;68.37;101416.09;4958691;28;20386;-95
2022/06/29 08:13:00;;;;;;;16.27;14.43;;;;;;;25.09;61.18;101410.31;4960321;28;20541;-93
2022/06/29 08:16:01;;;;;;;21.25;14.27;;;;;;;25.47;62.58;101387.97;4935994;28;20093;-92
2022/06/29 08:18:55;;;;;;;14.02;11.93;;;;;;;25.73;62.61;101402.72;4951620;28;20525;-93
2022/06/29 08:22:01;;;;;;;16.40;11.38;;;;;;;25.78;64.31;101394.44;4970153;28;20129;-92
2022/06/29 08:25:01;;;;;;;13.70;10.50;;;;;;;25.70;64.32;101404.81;4938071;28;20069;-92
2022/06/29 08:31:04;;;;;;;12.27;8.98;;;;;;;24.83;63.56;101387.53;4868227;29;20060;-92
2022/06/29 08:34:15;;;;;;;11.18;8.93;;;;;;;24.57;66.87;101385.94;4929920;28;20041;-93
2022/06/29 08:37:04;;;;;;;12.43;8.73;;;;;;;24.55;64.95;101396.69;4915843;29;20495;-93
2022/06/29 08:40:00;;;;;;;11.25;8.13;;;;;;;24.54;63.61;101392.34;4938017;28;20505;-92
2022/06/29 08:43:02;;;;;;;12.13;7.32;;;;;;;24.73;64.35;101376.75;4937115;29;20043;-93
2022/06/29 08:46:04;;;;;;;13.45;6.22;;;;;;;25.05;64.44;101392.94;4935360;29;20047;-92
2022/06/29 08:49:02;;;;;;;6.72;5.40;;;;;;;25.46;62.13;101381.81;4915450;29;20027;-93
2022/06/29 08:52:08;;;;;;;7.65;4.80;;;;;;;25.81;56.25;101383.53;4910934;28;20059;-92
2022/06/29 08:55:01;;;;;;;8.48;5.18;;;;;;;26.23;58.41;101371.31;4942964;28;20042;-92
2022/06/29 08:58:13;;;;;;;9.88;4.60;;;;;;;26.42;54.98;101374.19;4929680;29;20138;-92
2022/06/29 09:01:11;;;;;;;6.95;4.10;;;;;;;26.23;53.08;101379.28;4899787;29;20036;-93
2022/06/29 09:04:01;;;;;;;6.45;4.03;;;;;;;26.27;57.11;101397.53;4915416;29;20422;-92
2022/06/29 09:07:00;;;;;;;7.13;3.80;;;;;;;26.26;55.46;101360.47;4931972;29;20087;-92
2022/06/29 09:10:06;;;;;;;4.72;3.40;;;;;;;26.91;55.34;101392.28;4901676;29;20545;-90
2022/06/29 09:13:04;;;;;;;7.70;4.00;;;;;;;27.20;52.11;101363.22;4885727;29;20534;-90
2022/06/29 09:16:04;;;;;;;5.75;4.18;;;;;;;27.54;48.81;101363.00;4875226;29;20037;-89
2022/06/29 09:19:02;;;;;;;6.75;3.92;;;;;;;27.60;47.71;101371.31;4864074;29;20136;-90
2022/06/29 09:22:00;;;;;;;7.85;4.80;;;;;;;27.96;53.24;101379.72;4879758;29;20049;-91
2022/06/29 09:25:21;;;;;;;7.03;4.60;;;;;;;28.36;51.06;101377.03;4841152;29;20040;-90
2022/06/29 09:28:01;;;;;;;7.90;5.50;;;;;;;28.16;44.83;101366.34;4860713;29;20048;-92
2022/06/29 09:30:47;;;;;;;9.55;5.10;;;;;;;27.85;47.86;101392.16;4879693;29;20032;-90
2022/06/29 09:37:01;;;;;;;8.38;4.65;;;;;;;27.07;50.74;101381.22;4864320;29;20044;-92
2022/06/29 09:43:01;;;;;;;10.82;4.47;;;;;;;26.91;53.08;101392.28;4843460;29;20481;-93
2022/06/29 09:45:43;;;;;;;7.20;4.55;;;;;;;26.79;50.80;101389.78;4877257;29;20052;-93
2022/06/29 09:48:15;;;;;;;7.78;4.45;;;;;;;26.74;48.43;101367.06;4873180;29;20049;-91
2022/06/29 09:54:06;;;;;;;8.00;4.53;;;;;;;27.29;48.38;101382.91;4887694;29;20523;-94
2022/06/29 09:57:02;;;;;;;7.88;4.57;;;;;;;27.49;49.73;101364.22;4861720;29;20048;-93
2022/06/29 10:03:07;;;;;;;9.25;4.90;;;;;;;27.71;48.60;101363.22;4876423;29;20052;-92
2022/06/29 10:06:05;;;;;;;8.48;4.65;;;;;;;27.96;48.22;101382.41;4912089;29;20039;-94
2022/06/29 10:09:00;;;;;;;9.40;5.50;;;;;;;27.89;47.21;101356.28;4917859;29;20032;-92
2022/06/29 10:15:48;;;;;;;9.27;5.57;;;;;;;28.03;47.13;101379.06;4876650;29;20047;-93
2022/06/29 10:21:43;;;;;;;9.27;5.20;;;;;;;28.21;47.70;101372.09;4875804;29;20673;-93
2022/06/29 10:30:32;;;;;;;6.85;4.72;;;;;;;28.23;46.40;101358.66;4883953;29;20059;-93
2022/06/29 10:37:17;;;;;;;8.57;4.28;;;;;;;28.25;45.10;101356.69;4920618;29;20039;-91
2022/06/29 10:40:04;;;;;;;6.82;3.03;;;;;;;28.26;44.04;101363.69;4914956;29;20140;-92
2022/06/29 10:43:38;;;;;;;6.78;3.88;;;;;;;28.23;43.53;101351.50;4913260;28;20427;-92
2022/06/29 10:46:03;;;;;;;7.13;3.50;;;;;;;28.21;40.63;101347.25;4959085;28;20047;-92
2022/06/29 10:49:17;;;;;;;5.07;3.20;;;;;;;28.21;44.50;101334.78;4956260;28;20029;-93
2022/06/29 10:52:23;;;;;;;;;;;;;;;;;;;;;
2022/06/29 10:55:34;;;;;;;4.20;2.95;;;;;;;27.97;41.26;101331.63;4971526;28;20278;-92
2022/06/29 10:58:03;;;;;;;3.50;2.63;;;;;;;27.75;40.70;101326.50;4935873;29;20409;-93
2022/06/29 11:00:57;;;;;;;4.05;2.90;;;;;;;27.89;42.67;101342.13;4940011;28;20029;-92
2022/06/29 11:03:28;;;;;;;;;;;;;;;28.04;43.78;101343.44;4926469;29;20418;-91
2022/06/29 11:12:02;;;;;;;;;;;;;;;27.99;45.71;101334.13;4959354;28;20503;-92
2022/06/29 11:18:02;;;;;;;6.20;3.53;;;;;;;27.38;45.84;101305.72;4958230;28;20512;-93
2022/06/29 11:24:03;;;;;;;5.72;3.42;;;;;;;27.25;44.21;101310.41;4955086;28;20042;-93
2022/06/29 11:26:35;;;;;;;5.03;3.35;;;;;;;27.33;46.06;101315.06;4973755;28;20039;-92
2022/06/29 11:29:03;;;;;;;6.07;3.42;;;;;;;27.42;45.35;101306.31;4954575;28;20519;-92
2022/06/29 11:31:43;;;;;;;5.57;3.80;;;;;;;27.61;43.56;101319.72;4972833;28;20029;-92
2022/06/29 11:34:22;;;;;;;4.50;3.40;;;;;;;27.64;45.51;101313.25;4944182;28;20513;-92
2022/06/29 11:37:03;;;;;;;5.05;3.22;;;;;;;27.58;44.50;101300.50;4973406;28;20054;-93
2022/06/29 11:39:28;;;;;;;4.60;3.30;;;;;;;27.65;43.55;101325.63;4954652;28;20027;-93
2022/06/29 11:45:05;;;;;;;5.35;3.40;;;;;;;27.57;38.96;101285.50;4929108;29;20123;-93
2022/06/29 11:47:33;;;;;;;4.43;3.17;;;;;;;27.32;41.15;101284.94;4927469;29;20458;-93
2022/06/29 11:50:10;;;;;;;6.18;3.28;;;;;;;27.44;41.42;101307.00;4935246;29;20095;-93
2022/06/29 11:52:38;;;;;;;7.22;3.33;;;;;;;27.30;44.29;101299.34;4916970;29;20040;-92
2022/06/29 11:55:04;;;;;;;5.47;3.42;;;;;;;27.20;43.57;101290.50;4917490;29;20047;-91
2022/06/29 11:57:36;;;;;;;5.68;3.53;;;;;;;27.29;40.59;101279.91;4918875;29;20430;-92
2022/06/29 12:00:06;;;;;;;7.47;3.10;;;;;;;27.35;44.59;101273.19;4916909;29;20038;-91
2022/06/29 12:02:42;;;;;;;8.52;3.38;;;;;;;27.70;40.15;101292.28;4917078;29;20415;-91
2022/06/29 12:05:10;;;;;;;4.80;3.30;;;;;;;27.69;40.23;101276.44;4909072;29;20062;-91
2022/06/29 12:07:35;;;;;;;5.97;3.20;;;;;;;27.98;38.00;101279.16;4940201;29;20019;-91
2022/06/29 12:10:01;;;;;;;5.47;3.17;;;;;;;28.12;41.48;101286.72;4921279;29;20375;-93
2022/06/29 12:12:36;;;;;;;3.35;2.65;;;;;;;28.24;39.23;101275.84;4922519;29;20035;-92
2022/06/29 12:15:01;;;;;;;6.15;3.00;;;;;;;28.09;39.36;101261.22;4915392;29;20028;-93
2022/06/29 12:17:37;;;;;;;8.35;3.35;;;;;;;28.01;40.96;101252.22;4929410;29;20043;-92
2022/06/29 12:20:03;;;;;;;5.25;2.97;;;;;;;27.94;40.11;101261.75;4915257;29;20517;-91
2022/06/29 12:22:31;;;;;;;3.70;2.92;;;;;;;27.90;40.37;101266.53;4914308;29;20030;-92
2022/06/29 12:24:57;;;;;;;4.00;2.67;;;;;;;27.81;39.28;101257.53;4911819;29;20020;-93
2022/06/29 12:27:28;;;;;;;4.57;2.72;;;;;;;27.79;37.13;101251.47;4912500;29;20091;-92
2022/06/29 12:30:01;;;;;;;4.72;3.00;;;;;;;27.62;40.87;101252.16;4912781;29;20491;-93
2022/06/29 12:32:36;;;;;;;;;;;;;;;27.89;40.67;101271.00;4911913;29;20099;-93
2022/06/29 12:35:01;;;;;;;6.05;3.00;;;;;;;27.52;38.03;101268.09;4934018;29;19919;-94
2022/06/29 12:37:29;;;;;;;4.53;2.95;;;;;;;27.15;41.88;101256.28;4932225;29;20024;-93
2022/06/29 12:39:54;;;;;;;3.80;2.80;;;;;;;27.09;40.42;101264.81;4934177;29;20415;-92
2022/06/29 12:42:30;;;;;;;5.95;2.90;;;;;;;26.95;41.24;101244.72;4934021;29;20023;-92
2022/06/29 12:44:55;;;;;;;4.05;2.88;;;;;;;26.96;42.62;101242.88;4916033;29;20549;-92
2022/06/29 12:47:23;;;;;;;3.67;3.08;;;;;;;26.94;42.21;101261.66;4909729;29;20068;-93
2022/06/29 12:49:54;;;;;;;5.88;3.08;;;;;;;26.96;39.61;101256.16;4916866;29;20041;-92
2022/06/29 12:52:24;;;;;;;4.88;2.95;;;;;;;27.02;42.40;101272.47;4916156;29;20103;-93
2022/06/29 12:54:50;;;;;;;3.53;2.92;;;;;;;26.91;41.29;101272.53;4917796;29;20028;-92
2022/06/29 12:57:18;;;;;;;4.57;2.90;;;;;;;26.80;42.03;101271.75;4928623;29;20024;-92
2022/06/29 12:59:44;;;;;;;6.25;2.92;;;;;;;26.63;45.26;101266.03;4925645;29;20817;-93
2022/06/29 13:02:10;;;;;;;5.32;3.25;;;;;;;26.64;40.06;101254.41;4934861;29;20028;-92
2022/06/29 13:04:38;;;;;;;5.97;3.20;;;;;;;26.53;42.14;101241.19;4916598;29;20028;-94
2022/06/29 13:07:04;;;;;;;5.88;3.20;;;;;;;26.75;43.28;101267.63;4916924;29;20079;-92
2022/06/29 13:09:30;;;;;;;4.82;3.10;;;;;;;26.74;41.90;101239.38;4932697;29;20031;-91
2022/06/29 13:11:55;;;;;;;3.38;2.65;;;;;;;26.83;42.17;101258.16;4904031;29;20058;-92
2022/06/29 13:14:21;;;;;;;3.50;3.00;;;;;;;26.83;42.29;101229.75;4915308;29;20779;-93
2022/06/29 13:16:58;;;;;;;8.15;3.28;;;;;;;27.07;43.30;101242.81;4914831;29;20106;-92
2022/06/29 13:19:34;;;;;;;5.50;3.00;;;;;;;27.25;41.75;101253.66;4928971;29;20026;-93
2022/06/29 13:22:02;;;;;;;10.98;3.80;;;;;;;27.16;42.79;101231.34;4934487;29;20115;-91
2022/06/29 13:24:31;;;;;;;19.35;3.80;;;;;;;27.30;43.90;101249.63;4916079;29;20073;-92
2022/06/29 13:26:57;;;;;;;6.22;3.30;;;;;;;27.26;40.12;101231.38;4924641;29;20035;-93
2022/06/29 13:29:28;;;;;;;4.15;3.00;;;;;;;27.45;40.99;101255.41;4914347;29;20032;-93
2022/06/29 13:31:56;;;;;;;7.68;3.28;;;;;;;27.28;41.64;101232.94;4926470;29;20557;-92
2022/06/29 13:34:21;;;;;;;3.88;2.92;;;;;;;27.35;38.72;101226.09;4921240;29;20028;-92
2022/06/29 13:36:56;;;;;;;3.38;2.95;;;;;;;27.30;38.66;101228.31;4916379;29;20032;-90
2022/06/29 13:39:24;;;;;;;5.13;3.00;;;;;;;27.27;37.13;101231.25;4929831;29;20027;-92
2022/06/29 13:41:50;;;;;;;6.90;3.15;;;;;;;27.13;39.44;101235.13;4933772;29;20031;-92
2022/06/29 13:44:16;;;;;;;9.32;3.30;;;;;;;27.05;41.53;101223.44;4922797;29;20066;-93
2022/06/29 13:46:42;;;;;;;5.07;3.00;;;;;;;27.25;40.44;101238.53;4949092;29;20027;-93
2022/06/29 13:49:08;;;;;;;5.70;3.00;;;;;;;27.18;41.68;101224.06;4955576;28;20505;-93
2022/06/29 13:51:34;;;;;;;5.18;3.08;;;;;;;27.33;38.75;101229.88;4935261;29;20058;-92
2022/06/29 13:53:59;;;;;;;5.72;3.20;;;;;;;27.31;37.50;101226.50;4943925;29;20042;-91
2022/06/29 13:56:25;;;;;;;5.07;3.35;;;;;;;27.28;41.50;101202.81;4928495;29;20027;-91
2022/06/29 13:58:56;;;;;;;6.00;2.97;;;;;;;27.44;40.99;101208.44;4916604;29;20028;-92
2022/06/29 14:01:26;;;;;;;5.65;3.10;;;;;;;27.65;39.33;101211.06;4923633;29;20036;-91
2022/06/29 14:03:52;;;;;;;5.82;3.25;;;;;;;27.76;42.63;101216.28;4918041;29;20099;-91
2022/06/29 14:06:17;;;;;;;4.82;3.40;;;;;;;27.85;41.34;101213.63;4919680;29;20035;-92
2022/06/29 14:08:48;;;;;;;5.10;3.35;;;;;;;27.89;40.44;101201.72;4940766;29;20027;-91
2022/06/29 14:11:20;;;;;;;7.15;3.25;;;;;;;27.98;38.55;101212.53;4954356;29;20042;-92
2022/06/29 14:13:46;;;;;;;9.60;3.50;;;;;;;27.92;41.29;101198.75;4924405;29;20038;-93
2022/06/29 14:16:13;;;;;;;6.05;3.40;;;;;;;27.92;38.01;101200.56;4933331;29;20027;-92
2022/06/29 14:18:39;;;;;;;4.32;3.15;;;;;;;27.80;40.10;101207.88;4930663;29;20027;-91
2022/06/29 14:21:05;;;;;;;5.53;3.40;;;;;;;27.74;39.49;101203.09;4928096;29;20039;-91
2022/06/29 14:23:30;;;;;;;4.10;3.67;;;;;;;27.60;41.53;101215.97;4928223;29;20031;-92
2022/06/29 14:25:56;;;;;;;7.05;3.35;;;;;;;27.79;38.34;101200.84;4939678;29;20055;-92
2022/06/29 14:28:25;;;;;;;5.20;3.20;;;;;;;27.96;39.37;101207.31;4920741;29;20519;-91
2022/06/29 14:30:50;;;;;;;5.47;3.35;;;;;;;28.06;40.19;101204.66;4952714;29;20160;-91
2022/06/29 14:33:16;;;;;;;5.35;3.42;;;;;;;28.14;37.97;101196.78;4925287;29;20092;-91
2022/06/29 14:35:42;;;;;;;5.15;3.45;;;;;;;28.28;39.54;101196.41;4948007;29;20431;-91
2022/06/29 14:38:08;;;;;;;8.57;3.60;;;;;;;28.26;40.91;101203.69;4908913;29;20111;-91
2022/06/29 14:40:37;;;;;;;7.85;3.50;;;;;;;28.28;37.09;101189.25;4920139;29;20020;-92
2022/06/29 14:43:04;;;;;;;5.25;3.75;;;;;;;28.14;39.18;101173.69;4931194;29;20051;-92
2022/06/29 14:45:33;;;;;;;5.95;3.20;;;;;;;28.32;41.90;101205.78;4918249;29;20032;-91
2022/06/29 14:47:58;;;;;;;6.38;3.35;;;;;;;28.36;39.09;101198.34;4931644;29;20031;-91
2022/06/29 14:50:24;;;;;;;7.85;3.42;;;;;;;28.24;41.26;101195.84;4950893;29;20038;-92
2022/06/29 14:52:49;;;;;;;15.48;3.90;;;;;;;28.16;42.85;101209.03;4916727;29;20031;-92
2022/06/29 14:55:15;;;;;;;20.38;4.32;;;;;;;28.08;41.25;101211.53;4919252;29;20035;-92
2022/06/29 14:57:41;;;;;;;8.95;3.50;;;;;;;27.96;41.28;101190.50;4965877;28;20027;-92
2022/06/29 15:00:07;;;;;;;5.43;3.60;;;;;;;27.99;40.21;101195.53;4939659;28;20055;-90
2022/06/29 15:02:33;;;;;;;6.40;3.67;;;;;;;28.05;41.44;101203.81;4934053;29;20104;-92
2022/06/29 15:05:01;;;;;;;4.20;3.28;;;;;;;28.02;41.78;101188.09;4960961;28;20178;-90
2022/06/29 15:07:27;;;;;;;4.60;3.35;;;;;;;28.00;42.59;101199.88;4966954;28;20027;-90
2022/06/29 15:09:53;;;;;;;4.28;3.80;;;;;;;27.72;45.70;101198.88;4952726;28;20033;-91
2022/06/29 15:12:21;;;;;;;7.28;3.60;;;;;;;27.41;43.73;101190.09;4956994;28;20152;-90
2022/06/29 15:14:47;;;;;;;4.88;3.38;;;;;;;27.04;46.90;101173.84;4959205;28;20068;-90
2022/06/29 15:17:12;;;;;;;4.43;3.50;;;;;;;26.96;46.48;101181.66;4941519;28;20055;-91